sensor_id;sensor_type;location;lat;lon;timestamp;pressure;altitude;pressure_sealevel;temperature;humidity
78014;BME280;67222;50.182;8.734;2023-06-14T04:31:22;100317.81;;;14.82;59.24
78014;BME280;67222;50.182;8.734;2023-06-14T04:33:50;100318.06;;;14.81;58.44
78014;BME280;67222;50.182;8.734;2023-06-14T04:36:15;100310.59;;;14.83;58.25
78014;BME280;67222;50.182;8.734;2023-06-14T04:38:42;100314.91;;;14.84;57.91
78014;BME280;67222;50.182;8.734;2023-06-14T04:41:10;100319.81;;;14.87;58.41
78014;BME280;67222;50.182;8.734;2023-06-14T04:43:36;100314.56;;;14.92;58.06
78014;BME280;67222;50.182;8.734;2023-06-14T04:46:04;100319.94;;;14.92;58.39
78014;BME280;67222;50.182;8.734;2023-06-14T04:48:31;100318.06;;;14.93;58.29
78014;BME280;67222;50.182;8.734;2023-06-14T04:50:56;100322.81;;;15.02;58.70
78014;BME280;67222;50.182;8.734;2023-06-14T04:53:21;100326.00;;;14.99;58.10
78014;BME280;67222;50.182;8.734;2023-06-14T04:55:48;100329.03;;;15.03;58.96
78014;BME280;67222;50.182;8.734;2023-06-14T04:58:13;100322.97;;;15.07;60.15
78014;BME280;67222;50.182;8.734;2023-06-14T05:00:39;100325.28;;;15.15;59.38
78014;BME280;67222;50.182;8.734;2023-06-14T05:03:04;100322.22;;;15.24;59.86
78014;BME280;67222;50.182;8.734;2023-06-14T05:05:31;100330.75;;;15.21;58.62
78014;BME280;67222;50.182;8.734;2023-06-14T05:07:57;100331.44;;;15.28;59.26
78014;BME280;67222;50.182;8.734;2023-06-14T05:10:22;100329.81;;;15.27;57.29
78014;BME280;67222;50.182;8.734;2023-06-14T05:12:48;100325.13;;;15.34;57.76
78014;BME280;67222;50.182;8.734;2023-06-14T05:15:14;100317.97;;;15.39;58.59
78014;BME280;67222;50.182;8.734;2023-06-14T05:17:40;100329.19;;;15.48;57.34
78014;BME280;67222;50.182;8.734;2023-06-14T05:20:06;100330.09;;;15.54;58.22
78014;BME280;67222;50.182;8.734;2023-06-14T05:22:31;100323.78;;;15.60;57.66
78014;BME280;67222;50.182;8.734;2023-06-14T05:24:57;100330.75;;;15.72;58.14
78014;BME280;67222;50.182;8.734;2023-06-14T05:27:22;100341.75;;;15.71;56.83
78014;BME280;67222;50.182;8.734;2023-06-14T05:29:47;100331.41;;;15.80;57.79
78014;BME280;67222;50.182;8.734;2023-06-14T05:32:13;100337.50;;;15.87;57.60
78014;BME280;67222;50.182;8.734;2023-06-14T05:34:38;100336.75;;;15.91;56.17
78014;BME280;67222;50.182;8.734;2023-06-14T05:37:04;100340.47;;;16.02;56.24
78014;BME280;67222;50.182;8.734;2023-06-14T05:39:29;100348.69;;;16.12;56.38
78014;BME280;67222;50.182;8.734;2023-06-14T05:41:55;100343.56;;;16.11;55.88
78014;BME280;67222;50.182;8.734;2023-06-14T05:44:20;100347.50;;;16.20;56.44
78014;BME280;67222;50.182;8.734;2023-06-14T05:46:45;100351.09;;;16.25;57.02
78014;BME280;67222;50.182;8.734;2023-06-14T05:49:10;100344.91;;;16.25;57.64
78014;BME280;67222;50.182;8.734;2023-06-14T05:51:37;100351.41;;;16.29;55.81
78014;BME280;67222;50.182;8.734;2023-06-14T05:54:02;100347.28;;;16.38;57.07
78014;BME280;67222;50.182;8.734;2023-06-14T05:56:28;100345.88;;;16.35;56.76
78014;BME280;67222;50.182;8.734;2023-06-14T05:58:53;100357.31;;;16.43;55.37
78014;BME280;67222;50.182;8.734;2023-06-14T06:01:18;100353.06;;;16.47;55.33
78014;BME280;67222;50.182;8.734;2023-06-14T06:03:45;100362.38;;;16.56;55.31
78014;BME280;67222;50.182;8.734;2023-06-14T06:06:11;100361.97;;;16.64;56.06
78014;BME280;67222;50.182;8.734;2023-06-14T06:08:36;100364.50;;;16.71;56.00
78014;BME280;67222;50.182;8.734;2023-06-14T06:11:02;100369.81;;;16.82;57.17
78014;BME280;67222;50.182;8.734;2023-06-14T06:13:27;100368.81;;;16.88;54.88
78014;BME280;67222;50.182;8.734;2023-06-14T06:15:53;100370.00;;;16.92;54.85
78014;BME280;67222;50.182;8.734;2023-06-14T06:18:18;100374.94;;;17.01;54.51
78014;BME280;67222;50.182;8.734;2023-06-14T06:20:43;100374.03;;;17.12;54.55
78014;BME280;67222;50.182;8.734;2023-06-14T06:23:09;100376.53;;;17.18;54.98
78014;BME280;67222;50.182;8.734;2023-06-14T06:25:35;100379.56;;;17.22;55.36
78014;BME280;67222;50.182;8.734;2023-06-14T06:28:00;100371.78;;;17.25;54.91
78014;BME280;67222;50.182;8.734;2023-06-14T06:30:26;100373.66;;;17.25;55.80
78014;BME280;67222;50.182;8.734;2023-06-14T06:32:52;100379.19;;;17.35;57.02
78014;BME280;67222;50.182;8.734;2023-06-14T06:35:18;100380.59;;;17.38;54.26
78014;BME280;67222;50.182;8.734;2023-06-14T06:37:43;100379.25;;;17.40;55.04
78014;BME280;67222;50.182;8.734;2023-06-14T06:40:09;100387.25;;;17.52;53.55
78014;BME280;67222;50.182;8.734;2023-06-14T06:42:35;100376.81;;;17.61;53.64
78014;BME280;67222;50.182;8.734;2023-06-14T06:45:00;100378.31;;;17.68;53.59
78014;BME280;67222;50.182;8.734;2023-06-14T06:47:26;100381.00;;;17.68;53.50
78014;BME280;67222;50.182;8.734;2023-06-14T06:49:51;100382.47;;;17.81;54.51
78014;BME280;67222;50.182;8.734;2023-06-14T06:52:17;100382.22;;;17.82;53.38
78014;BME280;67222;50.182;8.734;2023-06-14T06:54:42;100383.72;;;17.95;53.74
78014;BME280;67222;50.182;8.734;2023-06-14T06:57:07;100385.53;;;18.11;53.95
78014;BME280;67222;50.182;8.734;2023-06-14T06:59:34;100390.41;;;18.14;55.32
78014;BME280;67222;50.182;8.734;2023-06-14T07:02:00;100383.91;;;18.10;54.34
78014;BME280;67222;50.182;8.734;2023-06-14T07:04:25;100393.06;;;18.09;52.86
78014;BME280;67222;50.182;8.734;2023-06-14T07:06:50;100395.56;;;18.16;52.29
78014;BME280;67222;50.182;8.734;2023-06-14T07:09:16;100393.88;;;18.37;51.36
78014;BME280;67222;50.182;8.734;2023-06-14T07:11:43;100394.81;;;18.53;51.77
78014;BME280;67222;50.182;8.734;2023-06-14T07:14:09;100391.66;;;18.61;52.70
78014;BME280;67222;50.182;8.734;2023-06-14T07:16:34;100405.00;;;18.72;48.22
78014;BME280;67222;50.182;8.734;2023-06-14T07:19:03;100397.56;;;18.85;47.47
78014;BME280;67222;50.182;8.734;2023-06-14T07:21:29;100385.72;;;18.96;47.40
78014;BME280;67222;50.182;8.734;2023-06-14T07:23:55;100392.59;;;19.14;46.94
78014;BME280;67222;50.182;8.734;2023-06-14T07:26:21;100395.66;;;19.22;45.81
78014;BME280;67222;50.182;8.734;2023-06-14T07:28:47;100389.47;;;19.32;48.37
78014;BME280;67222;50.182;8.734;2023-06-14T07:31:14;100395.47;;;19.44;46.93
78014;BME280;67222;50.182;8.734;2023-06-14T07:33:40;100387.75;;;19.63;47.08
78014;BME280;67222;50.182;8.734;2023-06-14T07:36:06;100394.25;;;19.67;46.85
78014;BME280;67222;50.182;8.734;2023-06-14T07:38:31;100391.00;;;19.65;46.41
78014;BME280;67222;50.182;8.734;2023-06-14T07:40:56;100386.69;;;19.69;46.47
78014;BME280;67222;50.182;8.734;2023-06-14T07:43:22;100399.19;;;19.80;47.37
78014;BME280;67222;50.182;8.734;2023-06-14T07:45:47;100392.69;;;19.71;45.90
78014;BME280;67222;50.182;8.734;2023-06-14T07:48:12;100379.09;;;19.61;45.62
78014;BME280;67222;50.182;8.734;2023-06-14T07:50:38;100401.31;;;19.68;47.14
78014;BME280;67222;50.182;8.734;2023-06-14T07:53:03;100394.78;;;19.64;46.50
78014;BME280;67222;50.182;8.734;2023-06-14T07:55:28;100390.78;;;19.77;44.56
78014;BME280;67222;50.182;8.734;2023-06-14T07:57:54;100391.63;;;19.87;46.82
78014;BME280;67222;50.182;8.734;2023-06-14T08:00:20;100384.91;;;19.95;47.82
78014;BME280;67222;50.182;8.734;2023-06-14T08:02:45;100388.97;;;19.98;45.86
78014;BME280;67222;50.182;8.734;2023-06-14T08:05:11;100384.69;;;20.12;44.60
78014;BME280;67222;50.182;8.734;2023-06-14T08:07:38;100393.34;;;20.14;46.24
78014;BME280;67222;50.182;8.734;2023-06-14T08:10:06;100383.31;;;20.19;43.80
78014;BME280;67222;50.182;8.734;2023-06-14T08:12:33;100390.94;;;20.27;44.28
78014;BME280;67222;50.182;8.734;2023-06-14T08:14:58;100391.19;;;20.36;44.05
78014;BME280;67222;50.182;8.734;2023-06-14T08:17:24;100400.97;;;20.42;45.79
78014;BME280;67222;50.182;8.734;2023-06-14T08:19:50;100406.09;;;20.39;44.49
78014;BME280;67222;50.182;8.734;2023-06-14T08:22:15;100397.69;;;20.35;46.58
78014;BME280;67222;50.182;8.734;2023-06-14T08:24:41;100390.38;;;20.20;45.05
78014;BME280;67222;50.182;8.734;2023-06-14T08:27:07;100390.63;;;20.09;45.56
78014;BME280;67222;50.182;8.734;2023-06-14T08:29:32;100396.31;;;20.12;43.28
78014;BME280;67222;50.182;8.734;2023-06-14T08:31:58;100395.22;;;20.08;43.88
78014;BME280;67222;50.182;8.734;2023-06-14T08:34:23;100396.28;;;20.02;43.87
78014;BME280;67222;50.182;8.734;2023-06-14T08:36:50;100389.78;;;19.98;42.93
78014;BME280;67222;50.182;8.734;2023-06-14T08:39:15;100391.13;;;20.01;44.47
78014;BME280;67222;50.182;8.734;2023-06-14T08:41:43;100399.53;;;20.04;45.74
78014;BME280;67222;50.182;8.734;2023-06-14T08:44:10;100399.28;;;20.11;44.08
78014;BME280;67222;50.182;8.734;2023-06-14T08:46:36;100396.31;;;20.22;44.57
78014;BME280;67222;50.182;8.734;2023-06-14T08:49:02;100397.69;;;20.40;44.83
78014;BME280;67222;50.182;8.734;2023-06-14T08:51:31;100390.72;;;20.65;43.67
78014;BME280;67222;50.182;8.734;2023-06-14T08:54:00;100382.84;;;20.89;42.22
78014;BME280;67222;50.182;8.734;2023-06-14T08:56:27;100392.00;;;21.13;41.32
78014;BME280;67222;50.182;8.734;2023-06-14T08:58:54;100390.09;;;21.24;42.35
78014;BME280;67222;50.182;8.734;2023-06-14T09:01:20;100394.41;;;21.45;40.81
78014;BME280;67222;50.182;8.734;2023-06-14T09:03:48;100394.06;;;21.62;39.65
78014;BME280;67222;50.182;8.734;2023-06-14T09:06:13;100393.81;;;21.63;38.99
78014;BME280;67222;50.182;8.734;2023-06-14T09:08:42;100391.06;;;21.68;39.80
78014;BME280;67222;50.182;8.734;2023-06-14T09:11:08;100399.16;;;21.79;41.18
78014;BME280;67222;50.182;8.734;2023-06-14T09:13:33;100395.56;;;21.88;38.93
78014;BME280;67222;50.182;8.734;2023-06-14T09:16:00;100394.56;;;21.79;39.37
78014;BME280;67222;50.182;8.734;2023-06-14T09:18:39;100405.88;;;21.96;39.83
78014;BME280;67222;50.182;8.734;2023-06-14T09:21:06;100408.00;;;22.04;39.28
78014;BME280;67222;50.182;8.734;2023-06-14T09:23:46;100404.50;;;21.99;39.38
78014;BME280;67222;50.182;8.734;2023-06-14T09:26:18;100401.72;;;22.14;38.39
78014;BME280;67222;50.182;8.734;2023-06-14T09:28:49;100402.75;;;22.23;38.48
78014;BME280;67222;50.182;8.734;2023-06-14T09:31:19;100398.84;;;22.40;37.48
78014;BME280;67222;50.182;8.734;2023-06-14T09:33:46;100406.09;;;22.49;37.28
78014;BME280;67222;50.182;8.734;2023-06-14T09:36:17;100414.41;;;22.63;37.27
78014;BME280;67222;50.182;8.734;2023-06-14T09:39:03;100418.44;;;22.71;36.86
78014;BME280;67222;50.182;8.734;2023-06-14T09:41:36;100411.88;;;22.77;37.40
78014;BME280;67222;50.182;8.734;2023-06-14T09:44:04;100425.25;;;22.68;36.11
78014;BME280;67222;50.182;8.734;2023-06-14T09:46:30;100418.16;;;22.72;36.63
78014;BME280;67222;50.182;8.734;2023-06-14T09:48:56;100400.09;;;22.86;36.42
78014;BME280;67222;50.182;8.734;2023-06-14T09:51:25;100411.63;;;23.07;36.66
78014;BME280;67222;50.182;8.734;2023-06-14T09:53:52;100408.56;;;23.14;37.00
78014;BME280;67222;50.182;8.734;2023-06-14T09:56:27;100408.69;;;23.27;36.45
78014;BME280;67222;50.182;8.734;2023-06-14T09:58:56;100410.25;;;23.34;38.04
78014;BME280;67222;50.182;8.734;2023-06-14T10:01:25;100417.22;;;23.45;38.38
78014;BME280;67222;50.182;8.734;2023-06-14T10:03:55;100418.59;;;23.42;36.69
78014;BME280;67222;50.182;8.734;2023-06-14T10:06:22;100416.78;;;23.33;36.66
78014;BME280;67222;50.182;8.734;2023-06-14T10:08:52;100410.63;;;23.22;37.53
78014;BME280;67222;50.182;8.734;2023-06-14T10:11:17;100414.38;;;23.31;36.62
78014;BME280;67222;50.182;8.734;2023-06-14T10:13:42;100407.59;;;23.29;36.55
78014;BME280;67222;50.182;8.734;2023-06-14T10:16:23;100395.09;;;23.51;36.65
78014;BME280;67222;50.182;8.734;2023-06-14T10:18:55;100407.81;;;23.80;37.13
78014;BME280;67222;50.182;8.734;2023-06-14T10:21:51;100399.22;;;23.92;35.83
78014;BME280;67222;50.182;8.734;2023-06-14T10:24:27;100401.53;;;24.03;36.03
78014;BME280;67222;50.182;8.734;2023-06-14T10:26:57;100401.38;;;24.13;35.12
78014;BME280;67222;50.182;8.734;2023-06-14T10:29:22;100401.47;;;24.08;35.63
78014;BME280;67222;50.182;8.734;2023-06-14T10:31:49;100399.59;;;23.85;36.33
78014;BME280;67222;50.182;8.734;2023-06-14T10:37:03;100402.84;;;23.87;36.33
78014;BME280;67222;50.182;8.734;2023-06-14T10:39:29;100410.31;;;24.00;34.57
78014;BME280;67222;50.182;8.734;2023-06-14T10:41:56;100398.66;;;24.13;34.83
78014;BME280;67222;50.182;8.734;2023-06-14T10:46:53;100393.56;;;24.26;34.11
78014;BME280;67222;50.182;8.734;2023-06-14T10:49:20;100399.19;;;24.34;35.20
78014;BME280;67222;50.182;8.734;2023-06-14T10:51:50;100388.75;;;24.41;34.07
78014;BME280;67222;50.182;8.734;2023-06-14T10:54:16;100399.41;;;24.19;34.52
78014;BME280;67222;50.182;8.734;2023-06-14T10:56:52;100392.78;;;24.25;35.77
78014;BME280;67222;50.182;8.734;2023-06-14T10:59:19;100398.97;;;24.50;34.42
78014;BME280;67222;50.182;8.734;2023-06-14T11:04:47;100404.25;;;24.03;33.64
78014;BME280;67222;50.182;8.734;2023-06-14T11:10:20;100398.41;;;23.48;34.96
78014;BME280;67222;50.182;8.734;2023-06-14T11:12:53;100398.84;;;23.79;38.45
78014;BME280;67222;50.182;8.734;2023-06-14T11:15:19;100395.09;;;23.94;36.55
78014;BME280;67222;50.182;8.734;2023-06-14T11:17:51;100398.28;;;23.82;34.19
78014;BME280;67222;50.182;8.734;2023-06-14T11:20:24;100388.41;;;23.86;33.75
78014;BME280;67222;50.182;8.734;2023-06-14T11:22:51;100396.59;;;24.05;32.80
78014;BME280;67222;50.182;8.734;2023-06-14T11:25:17;100397.25;;;23.97;32.22
78014;BME280;67222;50.182;8.734;2023-06-14T11:27:42;100389.50;;;23.67;33.77
78014;BME280;67222;50.182;8.734;2023-06-14T11:30:08;100391.22;;;23.58;34.75
78014;BME280;67222;50.182;8.734;2023-06-14T11:32:35;100403.75;;;23.53;34.85
78014;BME280;67222;50.182;8.734;2023-06-14T11:35:01;100397.28;;;23.49;34.85
78014;BME280;67222;50.182;8.734;2023-06-14T11:37:27;100402.84;;;23.39;34.10
78014;BME280;67222;50.182;8.734;2023-06-14T11:39:57;100398.91;;;23.26;33.75
78014;BME280;67222;50.182;8.734;2023-06-14T11:42:24;100395.47;;;23.16;34.46
78014;BME280;67222;50.182;8.734;2023-06-14T11:44:49;100392.03;;;23.05;34.61
78014;BME280;67222;50.182;8.734;2023-06-14T11:47:15;100401.50;;;23.13;33.94
78014;BME280;67222;50.182;8.734;2023-06-14T11:49:40;100409.13;;;23.11;34.06
78014;BME280;67222;50.182;8.734;2023-06-14T11:52:07;100398.09;;;23.26;33.88
78014;BME280;67222;50.182;8.734;2023-06-14T11:54:32;100390.44;;;23.52;35.41
78014;BME280;67222;50.182;8.734;2023-06-14T11:56:58;100388.84;;;23.94;32.63
78014;BME280;67222;50.182;8.734;2023-06-14T11:59:24;100400.78;;;24.16;32.77
78014;BME280;67222;50.182;8.734;2023-06-14T12:01:52;100397.19;;;24.02;32.47
78014;BME280;67222;50.182;8.734;2023-06-14T12:04:29;100401.81;;;23.83;32.99
78014;BME280;67222;50.182;8.734;2023-06-14T12:06:55;100400.38;;;23.67;33.24
78014;BME280;67222;50.182;8.734;2023-06-14T12:09:21;100403.25;;;23.51;33.34
78014;BME280;67222;50.182;8.734;2023-06-14T12:11:59;100396.88;;;23.85;32.26
78014;BME280;67222;50.182;8.734;2023-06-14T12:14:30;100397.91;;;23.89;33.02
78014;BME280;67222;50.182;8.734;2023-06-14T12:17:04;100397.59;;;23.72;32.39
78014;BME280;67222;50.182;8.734;2023-06-14T12:19:31;100401.00;;;23.59;33.83
78014;BME280;67222;50.182;8.734;2023-06-14T12:21:59;100397.78;;;23.56;34.36
78014;BME280;67222;50.182;8.734;2023-06-14T12:24:28;100393.53;;;23.45;32.68
78014;BME280;67222;50.182;8.734;2023-06-14T12:26:56;100396.81;;;23.42;33.47
78014;BME280;67222;50.182;8.734;2023-06-14T12:29:22;100393.69;;;23.54;33.70
78014;BME280;67222;50.182;8.734;2023-06-14T12:31:49;100398.97;;;23.45;32.99
78014;BME280;67222;50.182;8.734;2023-06-14T12:34:14;100394.63;;;23.44;32.58
78014;BME280;67222;50.182;8.734;2023-06-14T12:36:39;100398.69;;;23.47;32.19
78014;BME280;67222;50.182;8.734;2023-06-14T12:39:09;100385.38;;;23.45;33.01
78014;BME280;67222;50.182;8.734;2023-06-14T12:41:34;100392.72;;;23.45;32.50
78014;BME280;67222;50.182;8.734;2023-06-14T12:43:59;100391.31;;;23.47;34.68
78014;BME280;67222;50.182;8.734;2023-06-14T12:46:30;100395.44;;;23.45;33.05
78014;BME280;67222;50.182;8.734;2023-06-14T12:48:56;100389.13;;;23.49;33.45
78014;BME280;67222;50.182;8.734;2023-06-14T12:51:21;100394.28;;;23.51;33.52
78014;BME280;67222;50.182;8.734;2023-06-14T12:53:47;100391.22;;;23.58;33.48
78014;BME280;67222;50.182;8.734;2023-06-14T12:56:14;100401.00;;;23.59;32.90
78014;BME280;67222;50.182;8.734;2023-06-14T12:58:39;100392.31;;;23.56;32.75
78014;BME280;67222;50.182;8.734;2023-06-14T13:01:05;100406.06;;;23.70;33.50
78014;BME280;67222;50.182;8.734;2023-06-14T13:03:30;100394.38;;;24.07;32.38
78014;BME280;67222;50.182;8.734;2023-06-14T13:05:56;100393.56;;;24.26;31.32
78014;BME280;67222;50.182;8.734;2023-06-14T13:08:21;100403.16;;;24.23;30.61
78014;BME280;67222;50.182;8.734;2023-06-14T13:10:47;100403.97;;;24.24;30.98
78014;BME280;67222;50.182;8.734;2023-06-14T13:13:12;100402.59;;;24.45;31.75
78014;BME280;67222;50.182;8.734;2023-06-14T13:15:38;100399.72;;;24.69;30.42
78014;BME280;67222;50.182;8.734;2023-06-14T13:18:04;100396.28;;;24.96;30.74
78014;BME280;67222;50.182;8.734;2023-06-14T13:20:31;100391.09;;;25.13;30.82
78014;BME280;67222;50.182;8.734;2023-06-14T13:22:56;100392.53;;;25.52;31.11
78014;BME280;67222;50.182;8.734;2023-06-14T13:25:21;100401.63;;;25.75;30.30
78014;BME280;67222;50.182;8.734;2023-06-14T13:27:47;100402.22;;;25.58;29.80
78014;BME280;67222;50.182;8.734;2023-06-14T13:30:13;100391.28;;;25.58;29.27
78014;BME280;67222;50.182;8.734;2023-06-14T13:32:38;100398.78;;;25.52;29.05
78014;BME280;67222;50.182;8.734;2023-06-14T13:35:04;100402.06;;;25.68;30.12
78014;BME280;67222;50.182;8.734;2023-06-14T13:37:30;100401.81;;;25.64;31.46
78014;BME280;67222;50.182;8.734;2023-06-14T13:39:55;100400.81;;;25.74;31.22
78014;BME280;67222;50.182;8.734;2023-06-14T13:42:20;100398.72;;;25.71;31.22
78014;BME280;67222;50.182;8.734;2023-06-14T13:44:46;100391.19;;;25.77;31.23
78014;BME280;67222;50.182;8.734;2023-06-14T13:47:11;100390.06;;;25.91;33.73
78014;BME280;67222;50.182;8.734;2023-06-14T13:49:37;100392.88;;;26.00;31.27
78014;BME280;67222;50.182;8.734;2023-06-14T13:52:03;100385.09;;;26.07;31.03
78014;BME280;67222;50.182;8.734;2023-06-14T13:54:28;100382.19;;;26.26;29.80
78014;BME280;67222;50.182;8.734;2023-06-14T13:56:53;100374.75;;;26.40;29.72
78014;BME280;67222;50.182;8.734;2023-06-14T13:59:19;100372.56;;;26.29;31.90
78014;BME280;67222;50.182;8.734;2023-06-14T14:01:45;100369.41;;;26.21;33.98
78014;BME280;67222;50.182;8.734;2023-06-14T14:04:10;100376.63;;;26.17;33.44
78014;BME280;67222;50.182;8.734;2023-06-14T14:06:36;100372.25;;;25.94;34.13
78014;BME280;67222;50.182;8.734;2023-06-14T14:09:02;100371.06;;;25.59;35.51
78014;BME280;67222;50.182;8.734;2023-06-14T14:11:27;100376.75;;;25.35;36.10
78014;BME280;67222;50.182;8.734;2023-06-14T14:13:53;100375.41;;;23.60;58.42
78014;BME280;67222;50.182;8.734;2023-06-14T14:16:18;100368.34;;;24.01;46.49
78014;BME280;67222;50.182;8.734;2023-06-14T14:18:45;100360.88;;;24.26;37.41
78014;BME280;67222;50.182;8.734;2023-06-14T14:21:11;100374.31;;;24.41;36.33
78014;BME280;67222;50.182;8.734;2023-06-14T14:23:36;100372.09;;;24.43;38.53
78014;BME280;67222;50.182;8.734;2023-06-14T14:26:01;100370.38;;;24.47;40.71
78014;BME280;67222;50.182;8.734;2023-06-14T14:28:29;100370.25;;;24.38;33.99
78014;BME280;67222;50.182;8.734;2023-06-14T14:30:54;100368.97;;;24.50;33.86
78014;BME280;67222;50.182;8.734;2023-06-14T14:33:20;100367.44;;;24.76;36.66
78014;BME280;67222;50.182;8.734;2023-06-14T14:35:46;100370.25;;;25.03;32.78
78014;BME280;67222;50.182;8.734;2023-06-14T14:38:12;100370.88;;;25.28;34.62
78014;BME280;67222;50.182;8.734;2023-06-14T14:40:39;100370.28;;;25.31;31.32
78014;BME280;67222;50.182;8.734;2023-06-14T14:43:04;100368.13;;;25.42;31.06
78014;BME280;67222;50.182;8.734;2023-06-14T14:45:30;100363.59;;;25.51;31.53
78014;BME280;67222;50.182;8.734;2023-06-14T14:47:55;100363.81;;;25.68;32.68
78014;BME280;67222;50.182;8.734;2023-06-14T14:50:21;100366.63;;;25.77;31.35
78014;BME280;67222;50.182;8.734;2023-06-14T14:52:46;100372.38;;;25.61;34.88
78014;BME280;67222;50.182;8.734;2023-06-14T14:55:12;100369.38;;;25.35;30.38
78014;BME280;67222;50.182;8.734;2023-06-14T14:57:37;100359.88;;;25.33;31.03
78014;BME280;67222;50.182;8.734;2023-06-14T15:00:04;100369.34;;;25.63;32.68
78014;BME280;67222;50.182;8.734;2023-06-14T15:02:30;100367.94;;;25.79;31.62
78014;BME280;67222;50.182;8.734;2023-06-14T15:04:56;100360.88;;;26.01;31.30
78014;BME280;67222;50.182;8.734;2023-06-14T15:07:26;100356.81;;;26.12;32.03
78014;BME280;67222;50.182;8.734;2023-06-14T15:09:51;100356.84;;;25.98;31.62
78014;BME280;67222;50.182;8.734;2023-06-14T15:12:16;100355.19;;;26.11;39.72
78014;BME280;67222;50.182;8.734;2023-06-14T15:14:42;100357.00;;;26.15;32.70
78014;BME280;67222;50.182;8.734;2023-06-14T15:17:08;100359.06;;;26.10;31.25
78014;BME280;67222;50.182;8.734;2023-06-14T15:19:33;100362.34;;;25.84;31.44
78014;BME280;67222;50.182;8.734;2023-06-14T15:22:01;100364.97;;;25.89;33.16
78014;BME280;67222;50.182;8.734;2023-06-14T15:24:26;100367.13;;;25.79;31.55
78014;BME280;67222;50.182;8.734;2023-06-14T15:26:51;100366.09;;;25.61;34.24
78014;BME280;67222;50.182;8.734;2023-06-14T15:29:16;100362.47;;;25.52;35.20
78014;BME280;67222;50.182;8.734;2023-06-14T15:31:42;100371.59;;;25.33;33.14
78014;BME280;67222;50.182;8.734;2023-06-14T15:34:07;100369.03;;;25.23;32.51
78014;BME280;67222;50.182;8.734;2023-06-14T15:36:32;100372.88;;;25.22;31.29
78014;BME280;67222;50.182;8.734;2023-06-14T15:38:58;100366.00;;;25.25;31.71
78014;BME280;67222;50.182;8.734;2023-06-14T15:41:23;100370.28;;;25.31;32.87
78014;BME280;67222;50.182;8.734;2023-06-14T15:43:48;100363.59;;;25.37;31.13
78014;BME280;67222;50.182;8.734;2023-06-14T15:46:14;100366.75;;;25.30;31.46
78014;BME280;67222;50.182;8.734;2023-06-14T15:48:40;100366.03;;;25.39;32.54
78014;BME280;67222;50.182;8.734;2023-06-14T15:51:05;100367.53;;;25.45;32.95
78014;BME280;67222;50.182;8.734;2023-06-14T15:53:30;100352.38;;;25.39;32.78
78014;BME280;67222;50.182;8.734;2023-06-14T15:55:55;100362.28;;;25.34;32.50
78014;BME280;67222;50.182;8.734;2023-06-14T15:58:21;100353.91;;;25.31;33.34
78014;BME280;67222;50.182;8.734;2023-06-14T16:00:47;100345.41;;;25.19;31.57
78014;BME280;67222;50.182;8.734;2023-06-14T16:03:12;100356.81;;;25.21;34.43
78014;BME280;67222;50.182;8.734;2023-06-14T16:05:37;100343.75;;;25.04;32.37
78014;BME280;67222;50.182;8.734;2023-06-14T16:08:03;100349.53;;;25.02;32.62
78014;BME280;67222;50.182;8.734;2023-06-14T16:10:28;100340.84;;;25.14;33.42
78014;BME280;67222;50.182;8.734;2023-06-14T16:12:53;100342.47;;;25.15;33.52
78014;BME280;67222;50.182;8.734;2023-06-14T16:15:18;100341.25;;;25.08;31.53
78014;BME280;67222;50.182;8.734;2023-06-14T16:17:44;100342.69;;;24.86;30.18
78014;BME280;67222;50.182;8.734;2023-06-14T16:20:09;100351.19;;;24.85;30.48
78014;BME280;67222;50.182;8.734;2023-06-14T16:22:36;100348.88;;;24.78;30.41
78014;BME280;67222;50.182;8.734;2023-06-14T16:25:01;100351.75;;;24.68;30.81
78014;BME280;67222;50.182;8.734;2023-06-14T16:27:26;100347.41;;;24.67;32.34
78014;BME280;67222;50.182;8.734;2023-06-14T16:29:51;100343.63;;;24.49;32.18
78014;BME280;67222;50.182;8.734;2023-06-14T16:32:17;100348.56;;;24.47;34.78
78014;BME280;67222;50.182;8.734;2023-06-14T16:34:42;100352.56;;;24.55;38.64
78014;BME280;67222;50.182;8.734;2023-06-14T16:37:07;100344.81;;;24.43;34.54
78014;BME280;67222;50.182;8.734;2023-06-14T16:39:33;100352.84;;;24.34;35.31
78014;BME280;67222;50.182;8.734;2023-06-14T16:41:58;100355.94;;;24.28;33.40
78014;BME280;67222;50.182;8.734;2023-06-14T16:44:23;100345.56;;;24.30;36.10
78014;BME280;67222;50.182;8.734;2023-06-14T16:46:50;100343.72;;;24.25;34.27
78014;BME280;67222;50.182;8.734;2023-06-14T16:49:15;100344.66;;;24.15;34.76
78014;BME280;67222;50.182;8.734;2023-06-14T16:51:40;100347.09;;;24.17;35.98
78014;BME280;67222;50.182;8.734;2023-06-14T16:54:06;100347.34;;;24.02;34.57
78014;BME280;67222;50.182;8.734;2023-06-14T16:56:31;100344.69;;;23.97;34.83
78014;BME280;67222;50.182;8.734;2023-06-14T16:58:57;100354.25;;;23.94;34.87
78014;BME280;67222;50.182;8.734;2023-06-14T17:01:24;100358.16;;;23.88;33.31
78014;BME280;67222;50.182;8.734;2023-06-14T17:03:50;100370.25;;;24.01;39.12
78014;BME280;67222;50.182;8.734;2023-06-14T17:06:15;100358.75;;;24.04;38.54
78014;BME280;67222;50.182;8.734;2023-06-14T17:08:42;100360.16;;;24.01;37.73
78014;BME280;67222;50.182;8.734;2023-06-14T17:11:07;100358.97;;;24.07;35.60
78014;BME280;67222;50.182;8.734;2023-06-14T17:13:33;100358.06;;;24.12;34.12
78014;BME280;67222;50.182;8.734;2023-06-14T17:15:59;100363.69;;;24.21;35.97
78014;BME280;67222;50.182;8.734;2023-06-14T17:18:25;100363.59;;;24.26;40.04
78014;BME280;67222;50.182;8.734;2023-06-14T17:20:50;100366.91;;;24.23;35.83
78014;BME280;67222;50.182;8.734;2023-06-14T17:23:15;100354.75;;;24.15;34.02
78014;BME280;67222;50.182;8.734;2023-06-14T17:25:41;100367.28;;;24.16;34.16
78014;BME280;67222;50.182;8.734;2023-06-14T17:28:06;100383.19;;;24.09;33.79